Time;durP1;ratioP1;P1;durP2;ratioP2;P2;SDS_P1;SDS_P2;PMS_P1;PMS_P2;Temp;Humidity;BMP_temperature;BMP_pressure;BME280_temperature;BME280_humidity;BME280_pressure;Samples;Min_cycle;Max_cycle;Signal;HPM_P1;HPM_P2
2022/10/18 00:03:14;;;;;;;21.95;15.88;;;17.80;80.70;;;;;;10822729;33;20020;-72
2022/10/18 00:09:17;;;;;;;17.37;14.55;;;17.60;80.70;;;;;;10822657;33;20019;-73
2022/10/18 00:15:19;;;;;;;14.13;11.20;;;17.60;81.00;;;;;;10825575;32;20019;-73
2022/10/18 00:21:22;;;;;;;15.52;11.43;;;17.40;81.00;;;;;;10830703;27;20067;-73
2022/10/18 00:27:25;;;;;;;16.23;13.43;;;17.40;81.20;;;;;;10813102;33;20047;-73
2022/10/18 00:33:27;;;;;;;15.20;12.43;;;17.40;81.20;;;;;;10821962;33;20426;-73
2022/10/18 00:39:29;;;;;;;17.58;14.45;;;17.30;81.20;;;;;;10825810;33;20032;-72
2022/10/18 00:45:32;;;;;;;16.40;12.85;;;17.30;81.60;;;;;;10821804;33;20352;-72
2022/10/18 00:51:41;;;;;;;14.98;11.30;;;17.30;81.80;;;;;;10821412;33;20054;-72
2022/10/18 00:57:50;;;;;;;12.57;8.93;;;17.30;81.60;;;;;;10821239;33;20110;-73
2022/10/18 01:03:53;;;;;;;19.05;15.50;;;17.20;81.60;;;;;;10821193;33;20058;-73
2022/10/18 01:10:31;;;;;;;20.33;15.32;;;17.30;81.50;;;;;;10824974;33;20028;-73
2022/10/18 01:16:48;;;;;;;18.30;13.98;;;17.30;81.40;;;;;;10826998;32;20372;-73
2022/10/18 01:22:56;;;;;;;20.58;16.85;;;17.20;81.50;;;;;;10825739;32;20028;-73
2022/10/18 01:29:29;;;;;;;27.48;15.18;;;17.20;81.40;;;;;;10825514;32;20047;-73
2022/10/18 01:35:36;;;;;;;19.42;16.55;;;17.20;81.40;;;;;;10823682;33;20035;-73
2022/10/18 01:41:42;;;;;;;15.35;13.75;;;17.10;81.40;;;;;;10825432;33;20024;-72
2022/10/18 01:47:47;;;;;;;14.45;11.68;;;17.00;81.50;;;;;;10822379;33;20353;-73
2022/10/18 01:53:49;;;;;;;15.18;12.40;;;17.00;81.60;;;;;;10825126;33;20332;-73
2022/10/18 02:00:09;;;;;;;14.55;10.10;;;17.00;81.70;;;;;;10810769;33;20031;-73
2022/10/18 02:06:31;;;;;;;17.77;14.68;;;16.80;81.70;;;;;;10823711;33;20020;-73
2022/10/18 02:12:41;;;;;;;14.07;9.73;;;16.80;81.60;;;;;;10810530;33;20140;-72
2022/10/18 02:18:48;;;;;;;18.67;13.60;;;16.80;81.50;;;;;;10806271;33;20082;-73
2022/10/18 02:24:57;;;;;;;10.77;8.77;;;16.80;81.60;;;;;;10820036;33;20338;-73
2022/10/18 02:31:09;;;;;;;16.77;11.75;;;16.80;81.60;;;;;;10810137;33;20012;-73
2022/10/18 02:37:13;;;;;;;16.60;12.52;;;16.80;81.70;;;;;;10824997;32;20020;-72
2022/10/18 02:43:15;;;;;;;13.48;11.73;;;16.80;81.70;;;;;;10829092;33;20012;-72
2022/10/18 02:49:17;;;;;;;15.30;11.18;;;16.70;81.70;;;;;;10830284;33;20020;-72
2022/10/18 02:55:19;;;;;;;12.25;7.97;;;16.60;81.80;;;;;;10826444;33;20320;-72
2022/10/18 03:01:22;;;;;;;16.27;12.18;;;16.60;81.70;;;;;;10824540;32;20046;-72
2022/10/18 03:07:24;;;;;;;12.95;10.25;;;16.60;81.80;;;;;;10815567;33;20419;-72
2022/10/18 03:13:26;;;;;;;16.23;12.00;;;16.60;81.80;;;;;;10828294;33;20054;-72
2022/10/18 03:19:28;;;;;;;17.90;15.40;;;16.60;81.80;;;;;;10814967;33;20059;-72
2022/10/18 03:25:30;;;;;;;14.40;8.82;;;16.60;82.00;;;;;;10827984;32;20480;-73
2022/10/18 03:31:32;;;;;;;12.52;9.48;;;16.50;81.90;;;;;;10827982;33;20054;-72
2022/10/18 03:37:35;;;;;;;17.87;11.38;;;16.50;81.90;;;;;;10810550;33;20050;-72
2022/10/18 03:43:37;;;;;;;13.98;10.98;;;16.50;81.80;;;;;;10824360;33;20020;-72
2022/10/18 03:49:39;;;;;;;14.50;10.82;;;16.40;81.80;;;;;;10827186;32;20059;-72
2022/10/18 03:55:41;;;;;;;10.88;7.97;;;16.30;81.80;;;;;;10827132;33;20046;-72
2022/10/18 04:01:43;;;;;;;14.27;9.27;;;16.20;81.90;;;;;;10822768;32;20086;-72
2022/10/18 04:07:45;;;;;;;18.67;13.10;;;16.20;81.90;;;;;;10813716;33;20340;-72
2022/10/18 04:13:47;;;;;;;17.92;11.25;;;16.20;82.10;;;;;;10822612;33;20028;-72
2022/10/18 04:20:10;;;;;;;18.77;14.15;;;16.20;82.00;;;;;;10826328;33;20050;-72
2022/10/18 04:26:12;;;;;;;16.17;12.95;;;16.20;82.00;;;;;;10822889;33;20047;-72
2022/10/18 04:32:16;;;;;;;13.77;10.02;;;16.20;82.30;;;;;;10826143;33;20380;-72
2022/10/18 04:38:19;;;;;;;18.37;12.20;;;16.20;82.30;;;;;;10825914;33;20074;-72
2022/10/18 04:44:22;;;;;;;13.93;9.70;;;16.20;82.30;;;;;;10822631;33;20031;-72
2022/10/18 04:50:24;;;;;;;18.87;13.65;;;16.20;82.30;;;;;;10825622;33;20067;-72
2022/10/18 04:56:26;;;;;;;19.15;13.75;;;16.20;82.10;;;;;;10825517;33;20058;-72
2022/10/18 05:02:28;;;;;;;14.70;12.05;;;16.00;82.10;;;;;;10824828;32;20380;-72
2022/10/18 05:08:33;;;;;;;12.65;9.35;;;15.90;82.20;;;;;;10811919;33;20028;-72
2022/10/18 05:14:35;;;;;;;16.45;12.52;;;15.90;82.20;;;;;;10820824;33;20344;-72
2022/10/18 05:20:38;;;;;;;15.20;10.63;;;15.90;82.20;;;;;;10824523;32;20032;-72
2022/10/18 05:26:40;;;;;;;18.23;12.37;;;15.90;82.10;;;;;;10824529;33;20024;-73
2022/10/18 05:32:43;;;;;;;13.27;10.40;;;15.90;82.20;;;;;;10822912;32;20386;-72
2022/10/18 05:38:46;;;;;;;19.00;12.20;;;15.80;82.10;;;;;;10820063;33;20054;-72
2022/10/18 05:44:49;;;;;;;14.60;11.32;;;15.80;82.20;;;;;;10822887;32;20032;-72
2022/10/18 05:50:51;;;;;;;18.92;11.32;;;15.90;82.10;;;;;;10824131;33;20298;-72
2022/10/18 05:56:53;;;;;;;16.20;12.18;;;15.80;82.20;;;;;;10819824;33;20174;-73
2022/10/18 06:02:55;;;;;;;15.48;12.07;;;15.80;82.30;;;;;;10823891;33;20016;-72
2022/10/18 06:08:58;;;;;;;18.60;14.63;;;15.70;82.20;;;;;;10823416;32;20054;-73
2022/10/18 06:15:01;;;;;;;16.30;10.20;;;15.70;82.30;;;;;;10811326;32;20086;-72
2022/10/18 06:21:03;;;;;;;17.30;12.70;;;15.80;82.40;;;;;;10802107;32;20029;-72
2022/10/18 06:27:08;;;;;;;14.85;10.52;;;15.80;82.50;;;;;;10794216;33;20290;-73
2022/10/18 06:33:12;;;;;;;15.75;10.15;;;15.90;82.50;;;;;;10792563;33;20051;-73
2022/10/18 06:39:14;;;;;;;14.95;11.35;;;15.90;82.60;;;;;;10792409;33;20028;-73
2022/10/18 06:45:17;;;;;;;14.38;10.35;;;16.00;82.50;;;;;;10820422;32;20024;-72
2022/10/18 06:51:19;;;;;;;12.73;8.48;;;16.00;82.50;;;;;;10814210;33;20040;-73
2022/10/18 07:05:17;;;;;;;14.50;8.10;;;16.10;82.40;;;;;;10868445;32;20061;-73
2022/10/18 07:11:24;;;;;;;14.32;8.80;;;16.10;82.50;;;;;;10866929;32;20363;-73
2022/10/18 07:17:26;;;;;;;12.18;7.87;;;16.20;82.50;;;;;;10863058;32;20454;-72
2022/10/18 07:23:37;;;;;;;19.80;12.48;;;16.30;82.40;;;;;;10866373;32;20046;-73
2022/10/18 07:29:39;;;;;;;15.75;11.18;;;16.30;82.40;;;;;;10866859;32;20048;-73
2022/10/18 07:35:42;;;;;;;11.75;7.75;;;16.40;82.40;;;;;;10867706;32;20051;-72
2022/10/18 07:41:44;;;;;;;13.88;8.75;;;16.50;82.30;;;;;;10829157;32;20062;-73
2022/10/18 07:47:46;;;;;;;12.63;9.15;;;16.60;82.30;;;;;;10825741;33;20020;-73
2022/10/18 07:53:48;;;;;;;17.83;11.95;;;16.70;82.20;;;;;;10823080;33;20024;-73
2022/10/18 07:59:55;;;;;;;16.20;9.63;;;16.80;82.10;;;;;;10827004;33;20042;-72
2022/10/18 08:05:57;;;;;;;17.48;13.73;;;16.80;82.10;;;;;;10827124;33;20327;-73
2022/10/18 08:12:00;;;;;;;24.77;12.55;;;17.00;81.90;;;;;;10823087;33;20348;-73
2022/10/18 08:18:01;;;;;;;16.48;10.07;;;17.00;81.70;;;;;;10826539;33;20422;-73
2022/10/18 08:24:04;;;;;;;18.83;13.62;;;17.20;81.80;;;;;;10819985;27;295994;-72
2022/10/18 08:30:08;;;;;;;22.15;15.70;;;17.30;81.70;;;;;;10826159;33;20053;-73
2022/10/18 08:36:13;;;;;;;19.95;15.27;;;17.30;81.60;;;;;;10824296;32;20044;-73
2022/10/18 08:42:57;;;;;;;20.45;12.73;;;17.40;81.60;;;;;;10825733;33;20039;-72
2022/10/18 08:49:01;;;;;;;23.20;17.35;;;17.50;81.30;;;;;;10827956;32;20024;-72
2022/10/18 08:55:36;;;;;;;24.67;18.00;;;17.60;81.40;;;;;;10824921;32;20031;-72
2022/10/18 09:02:16;;;;;;;25.55;19.17;;;17.70;81.30;;;;;;10822285;32;20333;-72
2022/10/18 09:08:30;;;;;;;32.78;19.67;;;17.80;81.10;;;;;;10822506;32;20286;-72
2022/10/18 09:14:44;;;;;;;21.35;17.08;;;17.80;80.80;;;;;;10826116;32;20048;-72
2022/10/18 09:21:17;;;;;;;26.70;17.08;;;18.00;81.00;;;;;;10821515;32;20040;-73
2022/10/18 09:27:26;;;;;;;29.37;20.33;;;18.00;80.70;;;;;;10820670;33;20388;-73
2022/10/18 09:33:49;;;;;;;24.02;18.37;;;18.20;80.40;;;;;;10825001;33;20021;-72
2022/10/18 09:40:28;;;;;;;26.35;18.08;;;18.30;80.10;;;;;;10823696;33;20333;-73
2022/10/18 09:46:50;;;;;;;24.15;18.10;;;18.40;79.80;;;;;;10828759;32;20147;-73
2022/10/18 09:53:43;;;;;;;20.65;16.40;;;18.60;79.50;;;;;;10829260;32;20051;-73
2022/10/18 09:59:49;;;;;;;25.48;20.65;;;18.70;79.40;;;;;;10683709;33;20060;-73
2022/10/18 10:06:22;;;;;;;18.50;13.32;;;18.80;79.10;;;;;;10686857;33;20033;-73
2022/10/18 10:12:29;;;;;;;22.75;16.70;;;18.90;78.80;;;;;;10684795;33;20122;-73
2022/10/18 10:18:34;;;;;;;22.50;16.90;;;19.10;78.50;;;;;;10615867;33;20042;-73
2022/10/18 10:24:47;;;;;;;18.42;15.23;;;19.30;78.10;;;;;;10536308;33;20073;-73
2022/10/18 10:30:50;;;;;;;19.67;14.43;;;19.50;77.70;;;;;;10565897;33;20045;-73
2022/10/18 10:37:37;;;;;;;27.67;17.42;;;19.60;77.30;;;;;;10783116;33;20058;-73
2022/10/18 10:43:44;;;;;;;18.00;14.77;;;19.80;76.70;;;;;;10786032;33;20041;-73
2022/10/18 10:49:46;;;;;;;21.87;17.58;;;20.00;76.50;;;;;;10792230;33;20028;-72
2022/10/18 10:56:00;;;;;;;26.30;18.10;;;20.30;76.00;;;;;;10792119;33;20441;-72
2022/10/18 11:02:17;;;;;;;21.90;17.20;;;20.60;75.30;;;;;;10787362;33;20032;-72
2022/10/18 11:08:23;;;;;;;32.47;23.98;;;20.80;75.00;;;;;;10787207;33;20043;-73
2022/10/18 11:14:34;;;;;;;20.60;17.20;;;21.10;74.30;;;;;;10778589;33;20040;-72
2022/10/18 11:20:39;;;;;;;23.08;18.08;;;21.30;73.70;;;;;;10791643;32;20028;-72
2022/10/18 11:27:05;;;;;;;26.85;22.23;;;21.40;73.20;;;;;;10787292;33;20047;-72
2022/10/18 11:33:30;;;;;;;34.70;18.02;;;21.50;72.80;;;;;;10792221;33;20399;-73
2022/10/18 11:40:09;;;;;;;19.87;14.50;;;21.60;72.80;;;;;;10790491;33;20025;-73
2022/10/18 11:46:29;;;;;;;24.53;19.67;;;21.80;72.50;;;;;;10790564;33;20447;-73
2022/10/18 11:53:18;;;;;;;23.85;18.52;;;21.80;72.00;;;;;;10790464;33;20012;-72
2022/10/18 11:59:50;;;;;;;26.13;20.17;;;21.80;71.90;;;;;;10785773;33;20032;-72
2022/10/18 12:05:55;;;;;;;24.15;17.67;;;21.80;71.70;;;;;;10789463;33;20381;-73
2022/10/18 12:12:00;;;;;;;26.27;21.00;;;21.80;71.60;;;;;;10789866;33;20051;-72
2022/10/18 12:18:09;;;;;;;30.77;23.25;;;21.70;71.70;;;;;;10785449;33;20036;-73
2022/10/18 12:24:14;;;;;;;;;;;21.80;71.60;;;;;;10788387;33;20024;-72
2022/10/18 12:30:56;;;;;;;24.02;16.35;;;21.80;71.40;;;;;;10790004;33;20310;-72
2022/10/18 12:37:11;;;;;;;19.75;15.55;;;21.80;71.20;;;;;;10788946;33;20345;-72
2022/10/18 12:43:22;;;;;;;27.30;22.15;;;21.80;71.10;;;;;;10789012;32;20082;-72
2022/10/18 12:49:54;;;;;;;25.70;19.12;;;21.80;70.90;;;;;;10786531;33;20047;-72
2022/10/18 12:56:27;;;;;;;24.58;16.85;;;21.80;70.70;;;;;;10784490;33;20377;-72
2022/10/18 13:02:30;;;;;;;22.83;17.70;;;21.80;70.60;;;;;;10788433;33;20332;-71
2022/10/18 13:08:41;;;;;;;23.25;17.55;;;21.80;70.60;;;;;;10788288;33;20025;-72
2022/10/18 13:15:25;;;;;;;22.10;16.65;;;21.90;70.30;;;;;;10788180;33;20021;-72
2022/10/18 13:22:14;;;;;;;21.33;16.17;;;22.00;70.10;;;;;;10639428;33;20068;-72
2022/10/18 13:28:45;;;;;;;26.23;21.83;;;22.00;70.20;;;;;;10638747;33;20462;-72
2022/10/18 13:34:49;;;;;;;22.40;16.30;;;22.10;69.60;;;;;;10639237;33;20324;-72
2022/10/18 13:41:27;;;;;;;20.48;16.62;;;22.10;69.60;;;;;;10674363;33;20144;-72
2022/10/18 13:47:48;;;;;;;27.75;16.42;;;22.20;69.60;;;;;;10674603;32;20048;-77
2022/10/18 13:53:58;;;;;;;27.92;16.20;;;22.20;69.50;;;;;;10676365;32;20022;-77
2022/10/18 14:00:32;;;;;;;27.67;21.62;;;22.30;69.30;;;;;;10822853;32;20024;-76
2022/10/18 14:06:39;;;;;;;51.17;40.63;;;22.30;69.10;;;;;;10827574;32;20031;-77
2022/10/18 14:13:03;;;;;;;33.58;26.33;;;22.40;69.70;;;;;;10817302;33;20408;-77
2022/10/18 14:19:24;;;;;;;39.78;29.85;;;22.30;70.50;;;;;;10821180;33;20264;-77
2022/10/18 14:25:34;;;;;;;30.67;25.35;;;22.40;70.60;;;;;;10819802;33;20028;-73
2022/10/18 14:31:37;;;;;;;39.65;31.77;;;22.40;71.00;;;;;;10820061;32;20047;-78
2022/10/18 14:37:39;;;;;;;47.20;35.28;;;22.40;71.40;;;;;;10829731;33;20058;-77
2022/10/18 14:43:43;;;;;;;48.97;38.40;;;22.40;71.70;;;;;;10829520;33;20400;-78
2022/10/18 14:49:45;;;;;;;47.88;38.65;;;22.30;71.80;;;;;;10829198;33;20059;-77
2022/10/18 14:56:03;;;;;;;49.15;35.70;;;22.30;71.90;;;;;;10879555;32;20395;-76
2022/10/18 15:02:23;;;;;;;45.33;33.25;;;22.30;72.00;;;;;;10828390;33;20344;-77
2022/10/18 15:08:44;;;;;;;48.00;32.90;;;22.20;72.20;;;;;;10828547;33;20043;-77
2022/10/18 15:14:47;;;;;;;40.60;27.95;;;22.50;71.80;;;;;;10826005;32;20020;-76
2022/10/18 15:21:08;;;;;;;35.28;28.38;;;22.80;71.00;;;;;;10827704;32;20062;-77
2022/10/18 15:27:18;;;;;;;35.67;26.98;;;23.00;70.80;;;;;;10827932;33;20047;-77
2022/10/18 15:33:22;;;;;;;43.17;28.73;;;22.90;70.80;;;;;;10829760;33;20025;-77
2022/10/18 15:39:28;;;;;;;39.00;28.27;;;22.60;71.70;;;;;;10827537;33;20047;-77
2022/10/18 15:45:51;;;;;;;36.55;29.55;;;22.40;72.10;;;;;;10827195;32;20031;-77
2022/10/18 15:52:02;;;;;;;36.30;26.17;;;22.10;72.60;;;;;;10750888;32;20079;-78
2022/10/18 15:58:12;;;;;;;42.30;29.55;;;21.80;73.20;;;;;;10737652;33;20472;-77
2022/10/18 16:04:29;;;;;;;39.92;27.52;;;21.60;73.70;;;;;;10749600;33;20063;-77
2022/10/18 16:10:31;;;;;;;34.13;27.25;;;21.40;74.00;;;;;;10749484;33;20020;-78
2022/10/18 16:16:54;;;;;;;45.63;26.50;;;21.30;74.30;;;;;;10737048;33;20028;-78
2022/10/18 16:22:56;;;;;;;33.88;26.65;;;21.20;74.50;;;;;;10796715;27;20036;-78
2022/10/18 16:28:59;;;;;;;38.75;26.65;;;21.00;74.80;;;;;;10788908;33;20012;-77
2022/10/18 16:35:01;;;;;;;43.90;30.02;;;20.80;75.10;;;;;;10788956;33;20051;-77
2022/10/18 16:41:05;;;;;;;36.83;25.42;;;20.70;75.30;;;;;;10788727;33;20025;-77
2022/10/18 16:47:10;;;;;;;36.33;26.70;;;20.70;75.40;;;;;;10784963;32;20040;-77
2022/10/18 16:53:12;;;;;;;30.52;23.58;;;20.50;75.60;;;;;;10779334;33;20047;-77
2022/10/18 16:59:23;;;;;;;36.20;25.40;;;20.40;75.70;;;;;;10838415;32;20105;-77
2022/10/18 17:05:25;;;;;;;33.20;25.00;;;20.40;75.70;;;;;;10760361;33;20040;-77
2022/10/18 17:11:27;;;;;;;34.13;22.77;;;20.30;75.80;;;;;;10751878;33;20021;-77
2022/10/18 17:17:30;;;;;;;34.50;23.67;;;20.20;76.00;;;;;;10747696;33;20486;-77
2022/10/18 17:23:32;;;;;;;26.45;21.80;;;20.10;76.00;;;;;;10814181;32;20036;-77
2022/10/18 17:29:43;;;;;;;33.80;24.50;;;20.00;76.10;;;;;;10751583;33;20029;-77
2022/10/18 17:35:47;;;;;;;35.53;24.73;;;20.00;76.20;;;;;;10751397;33;20103;-77
2022/10/18 17:41:50;;;;;;;27.73;20.60;;;19.90;76.30;;;;;;10750940;32;20048;-77
2022/10/18 17:47:53;;;;;;;33.75;22.40;;;19.80;76.30;;;;;;10751100;33;20016;-77
2022/10/18 17:53:55;;;;;;;31.30;25.60;;;19.80;76.50;;;;;;10750561;33;20051;-77
2022/10/18 17:59:58;;;;;;;27.17;21.85;;;19.70;76.70;;;;;;10750391;33;20337;-76
2022/10/18 18:06:29;;;;;;;31.77;24.45;;;19.60;77.00;;;;;;10746581;33;20029;-76
2022/10/18 18:12:48;;;;;;;30.50;23.55;;;19.50;77.40;;;;;;10871684;32;20440;-76
2022/10/18 18:18:52;;;;;;;30.75;21.35;;;19.40;77.60;;;;;;10868671;32;20357;-76
2022/10/18 18:24:54;;;;;;;35.78;24.10;;;19.40;77.70;;;;;;10876719;32;20043;-71
2022/10/18 18:30:57;;;;;;;36.58;25.45;;;19.40;77.60;;;;;;10876715;32;20042;-71
2022/10/18 18:36:59;;;;;;;32.97;24.60;;;19.30;77.90;;;;;;10906938;32;20380;-71
2022/10/18 18:43:01;;;;;;;36.08;24.80;;;19.30;77.90;;;;;;10879929;32;20023;-71
2022/10/18 18:49:05;;;;;;;27.50;22.45;;;19.30;77.90;;;;;;10808218;32;20028;-71
2022/10/18 18:55:07;;;;;;;39.67;24.67;;;19.20;77.90;;;;;;10791429;33;20032;-71
2022/10/18 19:01:31;;;;;;;31.65;25.92;;;19.10;77.90;;;;;;10913777;32;20046;-71
2022/10/18 19:07:35;;;;;;;35.35;24.67;;;19.10;77.90;;;;;;10970853;32;20023;-71
2022/10/18 19:13:50;;;;;;;38.47;26.05;;;19.10;77.90;;;;;;10983895;32;20327;-72
2022/10/18 19:19:52;;;;;;;32.83;23.05;;;19.00;78.00;;;;;;10983069;32;20060;-71
2022/10/18 19:26:32;;;;;;;36.47;23.50;;;19.00;78.10;;;;;;10983429;32;20030;-71
2022/10/18 19:32:34;;;;;;;;;;;19.00;78.30;;;;;;10983675;32;20018;-71
2022/10/18 19:38:36;;;;;;;30.73;18.55;;;18.90;78.40;;;;;;10982929;32;19953;-71
2022/10/18 19:44:39;;;;;;;33.58;26.10;;;18.80;78.40;;;;;;10978805;32;20045;-77
2022/10/18 19:50:41;;;;;;;31.62;23.00;;;18.80;78.60;;;;;;10982893;32;20029;-77
2022/10/18 19:56:43;;;;;;;33.75;23.92;;;18.80;78.70;;;;;;10982581;32;20026;-77
2022/10/18 20:02:45;;;;;;;24.33;17.87;;;18.80;79.20;;;;;;10982112;32;20065;-77
2022/10/18 20:08:48;;;;;;;39.25;25.12;;;18.70;79.70;;;;;;10982294;32;20045;-77
2022/10/18 20:14:50;;;;;;;30.08;23.67;;;18.60;80.00;;;;;;10981945;32;20019;-77
2022/10/18 20:20:52;;;;;;;35.38;26.17;;;18.60;80.00;;;;;;10981586;32;20041;-77
2022/10/18 20:26:54;;;;;;;33.60;24.40;;;18.60;80.10;;;;;;10981565;32;20019;-77
2022/10/18 20:32:56;;;;;;;32.15;25.95;;;18.60;80.00;;;;;;10980387;32;20046;-76
2022/10/18 20:38:59;;;;;;;33.08;24.35;;;18.50;79.90;;;;;;10981079;32;20015;-77
2022/10/18 20:45:02;;;;;;;31.45;22.65;;;18.50;79.90;;;;;;10981086;32;20323;-77
2022/10/18 20:51:06;;;;;;;31.20;20.65;;;18.40;80.00;;;;;;10980936;32;20014;-77
2022/10/18 20:57:21;;;;;;;35.53;23.73;;;18.40;80.30;;;;;;10980732;32;20026;-76
2022/10/18 21:03:23;;;;;;;32.88;24.27;;;18.30;80.40;;;;;;10980314;32;20049;-76
2022/10/18 21:09:25;;;;;;;35.40;24.17;;;18.30;80.40;;;;;;10966812;32;20026;-76
2022/10/18 21:15:27;;;;;;;32.45;22.05;;;18.30;80.40;;;;;;10980170;32;20014;-77
2022/10/18 21:21:29;;;;;;;35.63;24.65;;;18.30;80.40;;;;;;10979788;32;20026;-76
2022/10/18 21:27:31;;;;;;;39.83;27.45;;;18.20;80.40;;;;;;10979871;32;20049;-76
2022/10/18 21:40:08;;;;;;;33.25;20.60;;;18.20;80.40;;;;;;10979713;32;20023;-76
2022/10/18 21:46:11;;;;;;;40.55;23.15;;;18.20;80.60;;;;;;10965736;32;20049;-76
2022/10/18 21:52:12;;;;;;;37.08;24.17;;;18.20;80.70;;;;;;10961707;32;20015;-72
2022/10/18 21:58:15;;;;;;;31.75;24.02;;;18.20;80.80;;;;;;10978998;32;20031;-72
2022/10/18 22:04:23;;;;;;;31.52;24.35;;;18.10;80.80;;;;;;10965735;32;20014;-72
2022/10/18 22:10:57;;;;;;;30.75;22.87;;;18.10;80.80;;;;;;10969143;32;20418;-72
2022/10/18 22:16:59;;;;;;;34.25;25.42;;;18.10;80.90;;;;;;10978893;32;20023;-72
2022/10/18 22:23:01;;;;;;;30.77;23.38;;;18.00;80.90;;;;;;10978748;32;20026;-72
2022/10/18 22:29:04;;;;;;;35.58;22.08;;;18.00;81.00;;;;;;10978558;32;20041;-72
2022/10/18 22:35:07;;;;;;;29.00;22.25;;;18.00;81.10;;;;;;10977687;32;20058;-72
2022/10/18 22:41:10;;;;;;;36.40;24.98;;;18.00;81.20;;;;;;10978388;32;20030;-72
2022/10/18 22:47:12;;;;;;;31.33;21.95;;;17.90;81.20;;;;;;10978356;32;20288;-72
2022/10/18 22:53:14;;;;;;;33.25;24.52;;;17.90;81.20;;;;;;10978247;32;20011;-72
2022/10/18 22:59:17;;;;;;;30.95;20.75;;;17.80;81.10;;;;;;10984809;32;20425;-72
2022/10/18 23:05:19;;;;;;;25.35;19.23;;;17.80;81.20;;;;;;10984678;32;20014;-72
2022/10/18 23:11:51;;;;;;;32.33;24.58;;;17.80;81.50;;;;;;10984409;32;20022;-71
2022/10/18 23:17:54;;;;;;;28.08;21.00;;;17.70;81.40;;;;;;10778267;32;20415;-71
2022/10/18 23:23:56;;;;;;;32.80;20.80;;;17.60;81.60;;;;;;10793360;33;20047;-72
2022/10/18 23:29:58;;;;;;;25.05;18.83;;;17.60;81.60;;;;;;10794187;33;20043;-72
2022/10/18 23:36:01;;;;;;;31.25;21.92;;;17.50;81.60;;;;;;10793860;33;20051;-72
2022/10/18 23:42:03;;;;;;;26.95;19.62;;;17.50;81.70;;;;;;10792460;33;20295;-72
2022/10/18 23:48:06;;;;;;;22.83;16.05;;;17.50;81.70;;;;;;10778030;33;20152;-72
2022/10/18 23:54:08;;;;;;;21.45;14.52;;;17.50;81.70;;;;;;10924159;32;20045;-71
